sensor_id;sensor_type;location;lat;lon;timestamp;P1;durP1;ratioP1;P2;durP2;ratioP2
61677;SDS011;47575;52.054;4.334;2022-08-01T00:02:15;17.33;;;9.55;;
61677;SDS011;47575;52.054;4.334;2022-08-01T00:04:43;17.23;;;9.90;;
61677;SDS011;47575;52.054;4.334;2022-08-01T00:07:10;15.55;;;8.48;;
61677;SDS011;47575;52.054;4.334;2022-08-01T00:09:38;19.23;;;9.63;;
61677;SDS011;47575;52.054;4.334;2022-08-01T00:12:06;15.30;;;7.95;;
61677;SDS011;47575;52.054;4.334;2022-08-01T00:14:33;13.30;;;6.93;;
61677;SDS011;47575;52.054;4.334;2022-08-01T00:17:00;11.48;;;5.97;;
61677;SDS011;47575;52.054;4.334;2022-08-01T00:19:27;8.48;;;4.20;;
61677;SDS011;47575;52.054;4.334;2022-08-01T00:21:55;6.55;;;3.22;;
61677;SDS011;47575;52.054;4.334;2022-08-01T00:24:22;8.52;;;3.03;;
61677;SDS011;47575;52.054;4.334;2022-08-01T00:26:50;5.82;;;2.47;;
61677;SDS011;47575;52.054;4.334;2022-08-01T00:29:18;5.47;;;2.17;;
61677;SDS011;47575;52.054;4.334;2022-08-01T00:31:45;5.32;;;2.10;;
61677;SDS011;47575;52.054;4.334;2022-08-01T00:34:12;5.22;;;2.08;;
61677;SDS011;47575;52.054;4.334;2022-08-01T00:36:39;6.32;;;2.42;;
61677;SDS011;47575;52.054;4.334;2022-08-01T00:39:07;6.15;;;2.25;;
61677;SDS011;47575;52.054;4.334;2022-08-01T00:41:34;4.90;;;1.92;;
61677;SDS011;47575;52.054;4.334;2022-08-01T00:44:03;4.53;;;2.42;;
61677;SDS011;47575;52.054;4.334;2022-08-01T00:46:32;6.47;;;3.22;;
61677;SDS011;47575;52.054;4.334;2022-08-01T00:48:59;7.07;;;3.38;;
61677;SDS011;47575;52.054;4.334;2022-08-01T00:51:27;6.88;;;3.53;;
61677;SDS011;47575;52.054;4.334;2022-08-01T00:53:54;6.75;;;3.90;;
61677;SDS011;47575;52.054;4.334;2022-08-01T00:56:24;6.75;;;4.03;;
61677;SDS011;47575;52.054;4.334;2022-08-01T00:58:52;7.60;;;3.63;;
61677;SDS011;47575;52.054;4.334;2022-08-01T01:01:21;10.00;;;4.13;;
61677;SDS011;47575;52.054;4.334;2022-08-01T01:03:49;9.57;;;4.53;;
61677;SDS011;47575;52.054;4.334;2022-08-01T01:09:14;8.32;;;4.72;;
61677;SDS011;47575;52.054;4.334;2022-08-01T01:11:49;8.93;;;5.40;;
61677;SDS011;47575;52.054;4.334;2022-08-01T01:14:30;7.18;;;4.93;;
61677;SDS011;47575;52.054;4.334;2022-08-01T01:17:05;9.70;;;5.15;;
61677;SDS011;47575;52.054;4.334;2022-08-01T01:19:36;9.23;;;5.85;;
61677;SDS011;47575;52.054;4.334;2022-08-01T01:22:17;12.00;;;6.72;;
61677;SDS011;47575;52.054;4.334;2022-08-01T01:24:54;13.55;;;6.30;;
61677;SDS011;47575;52.054;4.334;2022-08-01T01:27:42;9.95;;;5.72;;
61677;SDS011;47575;52.054;4.334;2022-08-01T01:30:17;10.68;;;6.15;;
61677;SDS011;47575;52.054;4.334;2022-08-01T01:32:46;10.85;;;6.35;;
61677;SDS011;47575;52.054;4.334;2022-08-01T01:35:17;10.88;;;6.32;;
61677;SDS011;47575;52.054;4.334;2022-08-01T01:37:48;10.70;;;6.85;;
61677;SDS011;47575;52.054;4.334;2022-08-01T01:40:20;12.77;;;7.25;;
61677;SDS011;47575;52.054;4.334;2022-08-01T01:42:49;11.63;;;5.97;;
61677;SDS011;47575;52.054;4.334;2022-08-01T01:45:18;14.35;;;6.65;;
61677;SDS011;47575;52.054;4.334;2022-08-01T01:47:48;11.38;;;6.30;;
61677;SDS011;47575;52.054;4.334;2022-08-01T01:50:15;10.98;;;5.93;;
61677;SDS011;47575;52.054;4.334;2022-08-01T01:52:46;12.15;;;5.50;;
61677;SDS011;47575;52.054;4.334;2022-08-01T01:55:15;10.95;;;5.53;;
61677;SDS011;47575;52.054;4.334;2022-08-01T01:57:45;10.00;;;5.35;;
61677;SDS011;47575;52.054;4.334;2022-08-01T02:00:14;9.88;;;5.47;;
61677;SDS011;47575;52.054;4.334;2022-08-01T02:02:44;9.13;;;5.03;;
61677;SDS011;47575;52.054;4.334;2022-08-01T02:05:12;11.98;;;5.38;;
61677;SDS011;47575;52.054;4.334;2022-08-01T02:07:40;8.15;;;5.07;;
61677;SDS011;47575;52.054;4.334;2022-08-01T02:10:08;6.68;;;3.92;;
61677;SDS011;47575;52.054;4.334;2022-08-01T02:12:37;5.53;;;2.95;;
61677;SDS011;47575;52.054;4.334;2022-08-01T02:15:08;5.45;;;2.47;;
61677;SDS011;47575;52.054;4.334;2022-08-01T02:17:39;5.88;;;2.35;;
61677;SDS011;47575;52.054;4.334;2022-08-01T02:20:12;3.90;;;1.80;;
61677;SDS011;47575;52.054;4.334;2022-08-01T02:22:40;6.72;;;2.17;;
61677;SDS011;47575;52.054;4.334;2022-08-01T02:25:14;4.85;;;2.00;;
61677;SDS011;47575;52.054;4.334;2022-08-01T02:27:46;4.07;;;1.70;;
61677;SDS011;47575;52.054;4.334;2022-08-01T02:30:17;5.35;;;1.90;;
61677;SDS011;47575;52.054;4.334;2022-08-01T02:32:46;4.68;;;1.70;;
61677;SDS011;47575;52.054;4.334;2022-08-01T02:35:19;5.10;;;2.00;;
61677;SDS011;47575;52.054;4.334;2022-08-01T02:37:50;5.05;;;2.13;;
61677;SDS011;47575;52.054;4.334;2022-08-01T02:40:19;5.10;;;2.05;;
61677;SDS011;47575;52.054;4.334;2022-08-01T02:42:49;4.18;;;1.98;;
61677;SDS011;47575;52.054;4.334;2022-08-01T02:45:18;5.43;;;1.70;;
61677;SDS011;47575;52.054;4.334;2022-08-01T02:47:47;4.75;;;1.83;;
61677;SDS011;47575;52.054;4.334;2022-08-01T02:50:16;5.68;;;1.85;;
61677;SDS011;47575;52.054;4.334;2022-08-01T02:52:48;7.05;;;1.90;;
61677;SDS011;47575;52.054;4.334;2022-08-01T02:55:17;5.53;;;1.80;;
61677;SDS011;47575;52.054;4.334;2022-08-01T02:57:46;2.97;;;1.65;;
61677;SDS011;47575;52.054;4.334;2022-08-01T03:00:15;5.97;;;1.90;;
61677;SDS011;47575;52.054;4.334;2022-08-01T03:02:44;4.90;;;1.98;;
61677;SDS011;47575;52.054;4.334;2022-08-01T03:05:16;5.70;;;1.80;;
61677;SDS011;47575;52.054;4.334;2022-08-01T03:07:46;5.40;;;2.00;;
61677;SDS011;47575;52.054;4.334;2022-08-01T03:10:14;5.20;;;2.00;;
61677;SDS011;47575;52.054;4.334;2022-08-01T03:12:43;5.22;;;2.33;;
61677;SDS011;47575;52.054;4.334;2022-08-01T03:15:13;6.68;;;2.65;;
61677;SDS011;47575;52.054;4.334;2022-08-01T03:17:42;7.10;;;2.60;;
61677;SDS011;47575;52.054;4.334;2022-08-01T03:20:13;6.60;;;2.78;;
61677;SDS011;47575;52.054;4.334;2022-08-01T03:22:43;6.05;;;2.90;;
61677;SDS011;47575;52.054;4.334;2022-08-01T03:25:13;5.80;;;2.50;;
61677;SDS011;47575;52.054;4.334;2022-08-01T03:27:42;5.72;;;2.58;;
61677;SDS011;47575;52.054;4.334;2022-08-01T03:30:11;6.40;;;2.83;;
61677;SDS011;47575;52.054;4.334;2022-08-01T03:32:39;8.73;;;2.72;;
61677;SDS011;47575;52.054;4.334;2022-08-01T03:35:07;5.82;;;2.78;;
61677;SDS011;47575;52.054;4.334;2022-08-01T03:37:36;6.80;;;2.75;;
61677;SDS011;47575;52.054;4.334;2022-08-01T03:40:10;7.70;;;3.08;;
61677;SDS011;47575;52.054;4.334;2022-08-01T03:42:44;5.28;;;2.60;;
61677;SDS011;47575;52.054;4.334;2022-08-01T03:45:15;6.20;;;2.60;;
61677;SDS011;47575;52.054;4.334;2022-08-01T03:47:49;5.85;;;2.70;;
61677;SDS011;47575;52.054;4.334;2022-08-01T03:50:20;7.40;;;2.90;;
61677;SDS011;47575;52.054;4.334;2022-08-01T03:52:49;6.75;;;2.70;;
61677;SDS011;47575;52.054;4.334;2022-08-01T03:55:19;9.32;;;3.20;;
61677;SDS011;47575;52.054;4.334;2022-08-01T03:57:48;6.90;;;2.72;;
61677;SDS011;47575;52.054;4.334;2022-08-01T04:00:17;6.00;;;2.70;;
61677;SDS011;47575;52.054;4.334;2022-08-01T04:02:45;5.70;;;2.40;;
61677;SDS011;47575;52.054;4.334;2022-08-01T04:05:13;8.35;;;2.38;;
61677;SDS011;47575;52.054;4.334;2022-08-01T04:07:41;5.20;;;2.20;;
61677;SDS011;47575;52.054;4.334;2022-08-01T04:10:13;4.55;;;2.33;;
61677;SDS011;47575;52.054;4.334;2022-08-01T04:12:41;5.90;;;2.35;;
61677;SDS011;47575;52.054;4.334;2022-08-01T04:15:09;5.47;;;2.45;;
61677;SDS011;47575;52.054;4.334;2022-08-01T04:17:36;6.35;;;2.55;;
61677;SDS011;47575;52.054;4.334;2022-08-01T04:20:04;7.03;;;2.38;;
61677;SDS011;47575;52.054;4.334;2022-08-01T04:22:31;5.85;;;2.72;;
61677;SDS011;47575;52.054;4.334;2022-08-01T04:25:01;6.20;;;3.22;;
61677;SDS011;47575;52.054;4.334;2022-08-01T04:27:32;5.47;;;3.03;;
61677;SDS011;47575;52.054;4.334;2022-08-01T04:30:06;5.95;;;2.75;;
61677;SDS011;47575;52.054;4.334;2022-08-01T04:32:35;6.88;;;3.28;;
61677;SDS011;47575;52.054;4.334;2022-08-01T04:35:06;5.80;;;2.90;;
61677;SDS011;47575;52.054;4.334;2022-08-01T04:37:36;8.80;;;2.80;;
61677;SDS011;47575;52.054;4.334;2022-08-01T04:40:06;5.97;;;3.25;;
61677;SDS011;47575;52.054;4.334;2022-08-01T04:42:35;7.03;;;2.83;;
61677;SDS011;47575;52.054;4.334;2022-08-01T04:45:03;5.38;;;2.45;;
61677;SDS011;47575;52.054;4.334;2022-08-01T04:47:35;5.95;;;2.38;;
61677;SDS011;47575;52.054;4.334;2022-08-01T04:50:04;6.97;;;2.97;;
61677;SDS011;47575;52.054;4.334;2022-08-01T04:52:34;6.43;;;2.85;;
61677;SDS011;47575;52.054;4.334;2022-08-01T04:55:02;6.28;;;2.80;;
61677;SDS011;47575;52.054;4.334;2022-08-01T04:57:31;5.82;;;3.25;;
61677;SDS011;47575;52.054;4.334;2022-08-01T05:00:02;4.88;;;2.85;;
61677;SDS011;47575;52.054;4.334;2022-08-01T05:02:32;6.68;;;3.40;;
61677;SDS011;47575;52.054;4.334;2022-08-01T05:05:00;6.65;;;3.28;;
61677;SDS011;47575;52.054;4.334;2022-08-01T05:07:28;5.05;;;2.70;;
61677;SDS011;47575;52.054;4.334;2022-08-01T05:09:55;4.95;;;2.97;;
61677;SDS011;47575;52.054;4.334;2022-08-01T05:12:22;6.13;;;3.13;;
61677;SDS011;47575;52.054;4.334;2022-08-01T05:14:50;5.43;;;2.97;;
61677;SDS011;47575;52.054;4.334;2022-08-01T05:17:17;7.15;;;3.13;;
61677;SDS011;47575;52.054;4.334;2022-08-01T05:19:45;6.70;;;3.30;;
61677;SDS011;47575;52.054;4.334;2022-08-01T05:22:13;6.65;;;3.22;;
61677;SDS011;47575;52.054;4.334;2022-08-01T05:24:40;9.88;;;4.05;;
61677;SDS011;47575;52.054;4.334;2022-08-01T05:27:08;7.03;;;3.67;;
61677;SDS011;47575;52.054;4.334;2022-08-01T05:29:36;11.80;;;4.40;;
61677;SDS011;47575;52.054;4.334;2022-08-01T05:32:03;9.75;;;4.72;;
61677;SDS011;47575;52.054;4.334;2022-08-01T05:34:31;9.30;;;4.20;;
61677;SDS011;47575;52.054;4.334;2022-08-01T05:36:58;10.88;;;4.40;;
61677;SDS011;47575;52.054;4.334;2022-08-01T05:39:27;10.88;;;4.07;;
61677;SDS011;47575;52.054;4.334;2022-08-01T05:41:54;11.43;;;4.95;;
61677;SDS011;47575;52.054;4.334;2022-08-01T05:44:21;12.48;;;5.15;;
61677;SDS011;47575;52.054;4.334;2022-08-01T05:46:48;11.35;;;4.93;;
61677;SDS011;47575;52.054;4.334;2022-08-01T05:49:16;15.52;;;6.03;;
61677;SDS011;47575;52.054;4.334;2022-08-01T05:51:43;10.38;;;5.18;;
61677;SDS011;47575;52.054;4.334;2022-08-01T05:54:10;7.90;;;5.32;;
61677;SDS011;47575;52.054;4.334;2022-08-01T05:56:39;10.98;;;5.03;;
61677;SDS011;47575;52.054;4.334;2022-08-01T05:59:06;8.82;;;5.20;;
61677;SDS011;47575;52.054;4.334;2022-08-01T06:01:33;10.35;;;5.00;;
61677;SDS011;47575;52.054;4.334;2022-08-01T06:04:01;9.80;;;5.70;;
61677;SDS011;47575;52.054;4.334;2022-08-01T06:06:28;10.30;;;6.50;;
61677;SDS011;47575;52.054;4.334;2022-08-01T06:08:55;11.02;;;6.03;;
61677;SDS011;47575;52.054;4.334;2022-08-01T06:11:23;8.40;;;5.05;;
61677;SDS011;47575;52.054;4.334;2022-08-01T06:13:51;8.48;;;4.78;;
61677;SDS011;47575;52.054;4.334;2022-08-01T06:16:19;9.38;;;5.20;;
61677;SDS011;47575;52.054;4.334;2022-08-01T06:18:46;8.80;;;5.13;;
61677;SDS011;47575;52.054;4.334;2022-08-01T06:21:14;14.00;;;6.18;;
61677;SDS011;47575;52.054;4.334;2022-08-01T06:23:41;13.13;;;5.70;;
61677;SDS011;47575;52.054;4.334;2022-08-01T06:26:08;15.95;;;6.43;;
61677;SDS011;47575;52.054;4.334;2022-08-01T06:28:36;16.42;;;6.30;;
61677;SDS011;47575;52.054;4.334;2022-08-01T06:31:05;22.33;;;6.72;;
61677;SDS011;47575;52.054;4.334;2022-08-01T06:33:33;19.00;;;6.45;;
61677;SDS011;47575;52.054;4.334;2022-08-01T06:36:00;19.38;;;6.10;;
61677;SDS011;47575;52.054;4.334;2022-08-01T06:38:27;21.10;;;6.32;;
61677;SDS011;47575;52.054;4.334;2022-08-01T06:40:54;24.35;;;7.65;;
61677;SDS011;47575;52.054;4.334;2022-08-01T06:43:21;17.75;;;7.10;;
61677;SDS011;47575;52.054;4.334;2022-08-01T06:45:49;22.02;;;7.03;;
61677;SDS011;47575;52.054;4.334;2022-08-01T06:48:17;19.23;;;7.13;;
61677;SDS011;47575;52.054;4.334;2022-08-01T06:50:45;25.05;;;8.35;;
61677;SDS011;47575;52.054;4.334;2022-08-01T06:53:12;14.27;;;7.22;;
61677;SDS011;47575;52.054;4.334;2022-08-01T06:55:39;16.88;;;8.05;;
61677;SDS011;47575;52.054;4.334;2022-08-01T06:58:07;18.65;;;7.70;;
61677;SDS011;47575;52.054;4.334;2022-08-01T07:00:34;18.35;;;7.28;;
61677;SDS011;47575;52.054;4.334;2022-08-01T07:03:01;19.13;;;6.80;;
61677;SDS011;47575;52.054;4.334;2022-08-01T07:05:30;17.20;;;7.78;;
61677;SDS011;47575;52.054;4.334;2022-08-01T07:07:57;88.60;;;11.38;;
61677;SDS011;47575;52.054;4.334;2022-08-01T07:10:24;17.05;;;5.95;;
61677;SDS011;47575;52.054;4.334;2022-08-01T07:12:52;17.35;;;6.55;;
61677;SDS011;47575;52.054;4.334;2022-08-01T07:15:19;18.75;;;6.80;;
61677;SDS011;47575;52.054;4.334;2022-08-01T07:17:51;17.15;;;5.75;;
61677;SDS011;47575;52.054;4.334;2022-08-01T07:20:19;13.75;;;5.78;;
61677;SDS011;47575;52.054;4.334;2022-08-01T07:22:47;16.40;;;5.97;;
61677;SDS011;47575;52.054;4.334;2022-08-01T07:25:14;13.70;;;6.20;;
61677;SDS011;47575;52.054;4.334;2022-08-01T07:27:42;13.88;;;6.40;;
61677;SDS011;47575;52.054;4.334;2022-08-01T07:30:10;15.52;;;7.50;;
61677;SDS011;47575;52.054;4.334;2022-08-01T07:32:38;15.13;;;7.25;;
61677;SDS011;47575;52.054;4.334;2022-08-01T07:35:05;15.43;;;7.50;;
61677;SDS011;47575;52.054;4.334;2022-08-01T07:37:33;15.45;;;6.90;;
61677;SDS011;47575;52.054;4.334;2022-08-01T07:40:02;18.02;;;6.35;;
61677;SDS011;47575;52.054;4.334;2022-08-01T07:42:30;15.30;;;7.10;;
61677;SDS011;47575;52.054;4.334;2022-08-01T07:44:58;14.45;;;6.40;;
61677;SDS011;47575;52.054;4.334;2022-08-01T07:47:25;16.58;;;5.75;;
61677;SDS011;47575;52.054;4.334;2022-08-01T07:49:58;17.58;;;5.28;;
61677;SDS011;47575;52.054;4.334;2022-08-01T07:52:26;11.68;;;5.20;;
61677;SDS011;47575;52.054;4.334;2022-08-01T07:54:54;12.05;;;4.70;;
61677;SDS011;47575;52.054;4.334;2022-08-01T07:57:23;12.25;;;4.57;;
61677;SDS011;47575;52.054;4.334;2022-08-01T07:59:50;13.38;;;4.15;;
61677;SDS011;47575;52.054;4.334;2022-08-01T08:02:18;10.68;;;4.05;;
61677;SDS011;47575;52.054;4.334;2022-08-01T08:04:45;13.60;;;4.05;;
61677;SDS011;47575;52.054;4.334;2022-08-01T08:07:13;12.90;;;3.90;;
61677;SDS011;47575;52.054;4.334;2022-08-01T08:09:40;10.55;;;3.20;;
61677;SDS011;47575;52.054;4.334;2022-08-01T08:12:07;9.02;;;2.97;;
61677;SDS011;47575;52.054;4.334;2022-08-01T08:14:36;11.70;;;2.90;;
61677;SDS011;47575;52.054;4.334;2022-08-01T08:17:04;10.52;;;2.95;;
61677;SDS011;47575;52.054;4.334;2022-08-01T08:19:32;11.43;;;2.92;;
61677;SDS011;47575;52.054;4.334;2022-08-01T08:22:02;14.57;;;2.97;;
61677;SDS011;47575;52.054;4.334;2022-08-01T08:24:30;10.13;;;2.90;;
61677;SDS011;47575;52.054;4.334;2022-08-01T08:26:58;9.13;;;3.00;;
61677;SDS011;47575;52.054;4.334;2022-08-01T08:29:26;12.70;;;3.25;;
61677;SDS011;47575;52.054;4.334;2022-08-01T08:31:56;9.20;;;2.25;;
61677;SDS011;47575;52.054;4.334;2022-08-01T08:34:24;8.30;;;2.40;;
61677;SDS011;47575;52.054;4.334;2022-08-01T08:36:52;11.10;;;2.03;;
61677;SDS011;47575;52.054;4.334;2022-08-01T08:39:21;7.75;;;2.15;;
61677;SDS011;47575;52.054;4.334;2022-08-01T08:41:49;7.05;;;1.73;;
61677;SDS011;47575;52.054;4.334;2022-08-01T08:44:17;10.25;;;2.15;;
61677;SDS011;47575;52.054;4.334;2022-08-01T08:46:46;9.13;;;2.20;;
61677;SDS011;47575;52.054;4.334;2022-08-01T08:49:17;7.03;;;1.95;;
61677;SDS011;47575;52.054;4.334;2022-08-01T08:51:47;9.13;;;2.30;;
61677;SDS011;47575;52.054;4.334;2022-08-01T08:54:15;10.75;;;2.10;;
61677;SDS011;47575;52.054;4.334;2022-08-01T08:56:44;11.43;;;2.13;;
61677;SDS011;47575;52.054;4.334;2022-08-01T08:59:12;8.32;;;1.77;;
61677;SDS011;47575;52.054;4.334;2022-08-01T09:01:40;10.32;;;2.38;;
61677;SDS011;47575;52.054;4.334;2022-08-01T09:04:08;11.95;;;2.00;;
61677;SDS011;47575;52.054;4.334;2022-08-01T09:06:37;7.75;;;1.98;;
61677;SDS011;47575;52.054;4.334;2022-08-01T09:09:05;8.35;;;2.10;;
61677;SDS011;47575;52.054;4.334;2022-08-01T09:11:35;10.48;;;2.17;;
61677;SDS011;47575;52.054;4.334;2022-08-01T09:14:04;7.82;;;1.48;;
61677;SDS011;47575;52.054;4.334;2022-08-01T09:16:35;6.97;;;1.83;;
61677;SDS011;47575;52.054;4.334;2022-08-01T09:19:07;6.75;;;1.60;;
61677;SDS011;47575;52.054;4.334;2022-08-01T09:21:35;7.60;;;1.52;;
61677;SDS011;47575;52.054;4.334;2022-08-01T09:24:12;8.73;;;1.40;;
61677;SDS011;47575;52.054;4.334;2022-08-01T09:26:41;10.38;;;1.92;;
61677;SDS011;47575;52.054;4.334;2022-08-01T09:29:08;7.35;;;1.73;;
61677;SDS011;47575;52.054;4.334;2022-08-01T09:31:45;6.88;;;1.70;;
61677;SDS011;47575;52.054;4.334;2022-08-01T09:34:13;9.43;;;1.98;;
61677;SDS011;47575;52.054;4.334;2022-08-01T09:36:45;7.30;;;1.50;;
61677;SDS011;47575;52.054;4.334;2022-08-01T09:39:19;7.35;;;1.83;;
61677;SDS011;47575;52.054;4.334;2022-08-01T09:41:47;11.20;;;2.35;;
61677;SDS011;47575;52.054;4.334;2022-08-01T09:44:16;13.90;;;2.88;;
61677;SDS011;47575;52.054;4.334;2022-08-01T09:46:48;16.75;;;3.20;;
61677;SDS011;47575;52.054;4.334;2022-08-01T09:49:26;11.93;;;2.58;;
61677;SDS011;47575;52.054;4.334;2022-08-01T09:51:55;14.15;;;3.00;;
61677;SDS011;47575;52.054;4.334;2022-08-01T09:54:29;9.90;;;2.47;;
61677;SDS011;47575;52.054;4.334;2022-08-01T09:57:08;14.57;;;3.10;;
61677;SDS011;47575;52.054;4.334;2022-08-01T09:59:36;9.30;;;2.38;;
61677;SDS011;47575;52.054;4.334;2022-08-01T10:02:06;10.15;;;2.10;;
61677;SDS011;47575;52.054;4.334;2022-08-01T10:04:34;10.82;;;2.70;;
61677;SDS011;47575;52.054;4.334;2022-08-01T10:07:05;10.57;;;2.22;;
61677;SDS011;47575;52.054;4.334;2022-08-01T10:09:35;9.57;;;2.13;;
61677;SDS011;47575;52.054;4.334;2022-08-01T10:12:03;11.73;;;2.55;;
61677;SDS011;47575;52.054;4.334;2022-08-01T10:14:31;10.48;;;2.35;;
61677;SDS011;47575;52.054;4.334;2022-08-01T10:17:00;11.75;;;2.33;;
61677;SDS011;47575;52.054;4.334;2022-08-01T10:19:29;9.25;;;2.05;;
61677;SDS011;47575;52.054;4.334;2022-08-01T10:21:58;12.32;;;2.30;;
61677;SDS011;47575;52.054;4.334;2022-08-01T10:24:27;10.98;;;2.47;;
61677;SDS011;47575;52.054;4.334;2022-08-01T10:26:59;10.30;;;2.70;;
61677;SDS011;47575;52.054;4.334;2022-08-01T10:29:31;10.43;;;2.47;;
61677;SDS011;47575;52.054;4.334;2022-08-01T10:32:03;13.43;;;3.00;;
61677;SDS011;47575;52.054;4.334;2022-08-01T10:34:32;12.38;;;2.70;;
61677;SDS011;47575;52.054;4.334;2022-08-01T10:37:01;10.50;;;2.63;;
61677;SDS011;47575;52.054;4.334;2022-08-01T10:39:30;13.50;;;2.85;;
61677;SDS011;47575;52.054;4.334;2022-08-01T10:41:58;10.35;;;2.50;;
61677;SDS011;47575;52.054;4.334;2022-08-01T10:44:27;10.25;;;2.40;;
61677;SDS011;47575;52.054;4.334;2022-08-01T10:46:56;13.75;;;2.75;;
61677;SDS011;47575;52.054;4.334;2022-08-01T10:49:29;12.35;;;2.58;;
61677;SDS011;47575;52.054;4.334;2022-08-01T10:51:58;18.35;;;2.90;;
61677;SDS011;47575;52.054;4.334;2022-08-01T10:54:26;10.30;;;2.22;;
61677;SDS011;47575;52.054;4.334;2022-08-01T10:56:53;13.05;;;2.20;;
61677;SDS011;47575;52.054;4.334;2022-08-01T10:59:28;10.90;;;2.47;;
61677;SDS011;47575;52.054;4.334;2022-08-01T11:01:56;10.85;;;2.33;;
61677;SDS011;47575;52.054;4.334;2022-08-01T11:04:39;9.93;;;2.15;;
61677;SDS011;47575;52.054;4.334;2022-08-01T11:07:13;11.18;;;2.20;;
61677;SDS011;47575;52.054;4.334;2022-08-01T11:09:45;9.75;;;1.98;;
61677;SDS011;47575;52.054;4.334;2022-08-01T11:12:14;8.70;;;2.03;;
61677;SDS011;47575;52.054;4.334;2022-08-01T11:18:00;8.77;;;1.83;;
61677;SDS011;47575;52.054;4.334;2022-08-01T11:20:29;12.82;;;2.28;;
61677;SDS011;47575;52.054;4.334;2022-08-01T11:26:06;9.65;;;3.15;;
61677;SDS011;47575;52.054;4.334;2022-08-01T11:28:37;8.77;;;2.25;;
61677;SDS011;47575;52.054;4.334;2022-08-01T11:31:26;10.27;;;2.10;;
61677;SDS011;47575;52.054;4.334;2022-08-01T11:33:55;11.27;;;1.85;;
61677;SDS011;47575;52.054;4.334;2022-08-01T11:36:22;13.93;;;2.08;;
61677;SDS011;47575;52.054;4.334;2022-08-01T11:39:10;9.00;;;1.92;;
61677;SDS011;47575;52.054;4.334;2022-08-01T11:41:39;9.63;;;2.03;;
61677;SDS011;47575;52.054;4.334;2022-08-01T11:44:09;7.97;;;1.73;;
61677;SDS011;47575;52.054;4.334;2022-08-01T11:46:48;5.55;;;1.23;;
61677;SDS011;47575;52.054;4.334;2022-08-01T11:49:25;5.65;;;1.30;;
61677;SDS011;47575;52.054;4.334;2022-08-01T11:51:58;10.13;;;1.80;;
61677;SDS011;47575;52.054;4.334;2022-08-01T11:54:27;8.02;;;1.80;;
61677;SDS011;47575;52.054;4.334;2022-08-01T11:56:56;8.27;;;1.83;;
61677;SDS011;47575;52.054;4.334;2022-08-01T11:59:24;6.70;;;1.90;;
61677;SDS011;47575;52.054;4.334;2022-08-01T12:01:53;8.57;;;1.67;;
61677;SDS011;47575;52.054;4.334;2022-08-01T12:04:20;10.43;;;1.85;;
61677;SDS011;47575;52.054;4.334;2022-08-01T12:06:47;9.48;;;1.60;;
61677;SDS011;47575;52.054;4.334;2022-08-01T12:09:16;9.77;;;1.60;;
61677;SDS011;47575;52.054;4.334;2022-08-01T12:14:18;7.28;;;1.60;;
61677;SDS011;47575;52.054;4.334;2022-08-01T12:16:51;9.30;;;1.70;;
61677;SDS011;47575;52.054;4.334;2022-08-01T12:19:21;5.95;;;1.23;;
61677;SDS011;47575;52.054;4.334;2022-08-01T12:22:05;8.75;;;1.77;;
61677;SDS011;47575;52.054;4.334;2022-08-01T12:24:37;9.02;;;1.92;;
61677;SDS011;47575;52.054;4.334;2022-08-01T12:27:06;11.75;;;1.85;;
61677;SDS011;47575;52.054;4.334;2022-08-01T12:29:36;10.20;;;1.60;;
61677;SDS011;47575;52.054;4.334;2022-08-01T12:32:20;9.07;;;1.85;;
61677;SDS011;47575;52.054;4.334;2022-08-01T12:34:50;6.88;;;1.48;;
61677;SDS011;47575;52.054;4.334;2022-08-01T12:37:17;8.35;;;1.77;;
61677;SDS011;47575;52.054;4.334;2022-08-01T12:39:45;10.02;;;1.85;;
61677;SDS011;47575;52.054;4.334;2022-08-01T12:42:14;8.60;;;1.90;;
61677;SDS011;47575;52.054;4.334;2022-08-01T12:44:43;7.60;;;1.83;;
61677;SDS011;47575;52.054;4.334;2022-08-01T12:47:14;8.32;;;1.52;;
61677;SDS011;47575;52.054;4.334;2022-08-01T12:49:42;10.30;;;1.80;;
61677;SDS011;47575;52.054;4.334;2022-08-01T12:52:11;6.60;;;1.80;;
61677;SDS011;47575;52.054;4.334;2022-08-01T12:57:30;8.75;;;2.00;;
61677;SDS011;47575;52.054;4.334;2022-08-01T13:00:04;9.98;;;1.90;;
61677;SDS011;47575;52.054;4.334;2022-08-01T13:02:35;7.85;;;1.67;;
61677;SDS011;47575;52.054;4.334;2022-08-01T13:05:03;10.32;;;1.63;;
61677;SDS011;47575;52.054;4.334;2022-08-01T13:07:35;7.82;;;1.67;;
61677;SDS011;47575;52.054;4.334;2022-08-01T13:10:03;6.55;;;1.40;;
61677;SDS011;47575;52.054;4.334;2022-08-01T13:12:31;7.53;;;1.50;;
61677;SDS011;47575;52.054;4.334;2022-08-01T13:14:59;8.88;;;1.90;;
61677;SDS011;47575;52.054;4.334;2022-08-01T13:17:30;8.05;;;2.30;;
61677;SDS011;47575;52.054;4.334;2022-08-01T13:19:59;7.75;;;1.50;;
61677;SDS011;47575;52.054;4.334;2022-08-01T13:22:31;8.35;;;2.33;;
61677;SDS011;47575;52.054;4.334;2022-08-01T13:27:36;6.85;;;1.38;;
61677;SDS011;47575;52.054;4.334;2022-08-01T13:30:09;6.63;;;1.67;;
61677;SDS011;47575;52.054;4.334;2022-08-01T13:32:39;6.35;;;1.35;;
61677;SDS011;47575;52.054;4.334;2022-08-01T13:35:10;4.95;;;0.90;;
61677;SDS011;47575;52.054;4.334;2022-08-01T13:37:40;4.30;;;1.10;;
61677;SDS011;47575;52.054;4.334;2022-08-01T13:40:09;4.85;;;1.10;;
61677;SDS011;47575;52.054;4.334;2022-08-01T13:42:37;6.03;;;1.20;;
61677;SDS011;47575;52.054;4.334;2022-08-01T13:45:05;5.93;;;1.10;;
61677;SDS011;47575;52.054;4.334;2022-08-01T13:47:36;5.78;;;1.35;;
61677;SDS011;47575;52.054;4.334;2022-08-01T13:50:05;6.30;;;1.35;;
61677;SDS011;47575;52.054;4.334;2022-08-01T13:52:33;4.22;;;1.00;;
61677;SDS011;47575;52.054;4.334;2022-08-01T13:55:01;4.97;;;1.08;;
61677;SDS011;47575;52.054;4.334;2022-08-01T13:57:29;7.22;;;1.50;;
61677;SDS011;47575;52.054;4.334;2022-08-01T13:59:56;6.28;;;1.23;;
61677;SDS011;47575;52.054;4.334;2022-08-01T14:02:25;7.65;;;1.50;;
61677;SDS011;47575;52.054;4.334;2022-08-01T14:04:54;5.40;;;1.10;;
61677;SDS011;47575;52.054;4.334;2022-08-01T14:07:24;6.78;;;1.20;;
61677;SDS011;47575;52.054;4.334;2022-08-01T14:09:52;4.35;;;1.20;;
61677;SDS011;47575;52.054;4.334;2022-08-01T14:12:20;4.90;;;1.10;;
61677;SDS011;47575;52.054;4.334;2022-08-01T14:14:47;6.05;;;1.40;;
61677;SDS011;47575;52.054;4.334;2022-08-01T14:17:14;6.05;;;1.30;;
61677;SDS011;47575;52.054;4.334;2022-08-01T14:19:41;5.80;;;1.30;;
61677;SDS011;47575;52.054;4.334;2022-08-01T14:22:09;4.20;;;1.15;;
61677;SDS011;47575;52.054;4.334;2022-08-01T14:24:36;5.38;;;1.30;;
61677;SDS011;47575;52.054;4.334;2022-08-01T14:27:04;5.60;;;1.00;;
61677;SDS011;47575;52.054;4.334;2022-08-01T14:29:32;6.03;;;1.20;;
61677;SDS011;47575;52.054;4.334;2022-08-01T14:31:59;5.65;;;1.00;;
61677;SDS011;47575;52.054;4.334;2022-08-01T14:34:26;6.28;;;1.20;;
61677;SDS011;47575;52.054;4.334;2022-08-01T14:36:54;5.10;;;1.15;;
61677;SDS011;47575;52.054;4.334;2022-08-01T14:39:21;7.40;;;1.90;;
61677;SDS011;47575;52.054;4.334;2022-08-01T14:41:48;6.50;;;1.38;;
61677;SDS011;47575;52.054;4.334;2022-08-01T14:44:17;5.53;;;1.35;;
61677;SDS011;47575;52.054;4.334;2022-08-01T14:46:44;6.45;;;1.52;;
61677;SDS011;47575;52.054;4.334;2022-08-01T14:49:13;8.45;;;1.67;;
61677;SDS011;47575;52.054;4.334;2022-08-01T14:51:41;6.57;;;1.40;;
61677;SDS011;47575;52.054;4.334;2022-08-01T14:54:08;6.65;;;1.33;;
61677;SDS011;47575;52.054;4.334;2022-08-01T14:56:35;5.55;;;1.40;;
61677;SDS011;47575;52.054;4.334;2022-08-01T14:59:03;8.20;;;1.20;;
61677;SDS011;47575;52.054;4.334;2022-08-01T15:01:31;5.35;;;1.27;;
61677;SDS011;47575;52.054;4.334;2022-08-01T15:03:59;5.60;;;1.20;;
61677;SDS011;47575;52.054;4.334;2022-08-01T15:06:26;4.72;;;1.27;;
61677;SDS011;47575;52.054;4.334;2022-08-01T15:08:53;5.72;;;1.30;;
61677;SDS011;47575;52.054;4.334;2022-08-01T15:11:21;3.55;;;1.00;;
61677;SDS011;47575;52.054;4.334;2022-08-01T15:13:48;4.72;;;1.30;;